createdAt,value
2019-01-23T00:01:43.568Z,-8.50
2019-01-23T00:06:28.453Z,-8.50
2019-01-23T00:11:13.062Z,-8.40
2019-01-23T00:15:58.021Z,-8.20
2019-01-23T00:20:42.860Z,-8.00
2019-01-23T00:25:27.690Z,-8.00
2019-01-23T00:30:12.434Z,-7.80
2019-01-23T00:34:57.533Z,-7.80
2019-01-23T00:39:44.708Z,-7.80
2019-01-23T00:44:29.478Z,-7.70
2019-01-23T00:49:17.216Z,-7.70
2019-01-23T00:54:01.998Z,-7.70
2019-01-23T00:58:49.286Z,-7.60
2019-01-23T01:03:33.085Z,-7.50
2019-01-23T01:08:17.654Z,-7.60
2019-01-23T01:13:02.218Z,-7.60
2019-01-23T01:17:46.758Z,-7.60
2019-01-23T01:22:31.566Z,-7.60
2019-01-23T01:27:16.181Z,-7.50
2019-01-23T01:32:03.613Z,-7.60
2019-01-23T01:36:48.182Z,-7.70
2019-01-23T01:41:32.943Z,-7.70
2019-01-23T01:46:17.563Z,-7.80
2019-01-23T01:51:02.205Z,-7.60
2019-01-23T01:55:46.919Z,-7.60
2019-01-23T02:00:31.570Z,-7.60
2019-01-23T02:05:16.687Z,-7.60
2019-01-23T02:10:01.439Z,-7.60
2019-01-23T02:14:46.024Z,-7.50
2019-01-23T02:19:30.674Z,-7.60
2019-01-23T02:24:15.191Z,-7.50
2019-01-23T02:28:59.856Z,-7.50
2019-01-23T02:33:47.322Z,-7.60
2019-01-23T02:38:31.982Z,-7.50
2019-01-23T02:43:16.734Z,-7.60
2019-01-23T02:48:01.431Z,-7.60
2019-01-23T02:52:46.089Z,-7.60
2019-01-23T02:57:30.730Z,-7.60
2019-01-23T03:02:15.408Z,-7.60
2019-01-23T03:07:00.121Z,-7.70
2019-01-23T03:11:44.892Z,-7.70
2019-01-23T03:16:29.696Z,-7.70
2019-01-23T03:21:14.359Z,-7.80
2019-01-23T03:25:59.139Z,-8.00
2019-01-23T03:30:43.741Z,-8.00
2019-01-23T03:35:28.514Z,-8.00
2019-01-23T03:40:15.482Z,-8.00
2019-01-23T03:45:00.336Z,-8.00
2019-01-23T03:49:44.938Z,-8.00
2019-01-23T03:54:29.559Z,-8.00
2019-01-23T03:59:14.273Z,-8.10
2019-01-23T04:03:58.961Z,-8.10
2019-01-23T04:08:43.782Z,-8.20
2019-01-23T04:13:28.330Z,-8.10
2019-01-23T04:18:12.914Z,-8.20
2019-01-23T04:22:57.592Z,-8.10
2019-01-23T04:27:42.302Z,-8.00
2019-01-23T04:32:27.249Z,-8.00
2019-01-23T04:37:12.029Z,-7.90
2019-01-23T04:41:56.661Z,-7.90
2019-01-23T04:46:41.212Z,-7.80
2019-01-23T04:51:44.953Z,-7.80
2019-01-23T04:56:29.544Z,-7.80
2019-01-23T05:01:14.354Z,-7.90
2019-01-23T05:05:59.236Z,-8.00
2019-01-23T05:10:43.807Z,-8.00
2019-01-23T05:15:28.725Z,-8.00
2019-01-23T05:20:13.745Z,-8.00
2019-01-23T05:24:58.371Z,-8.00
2019-01-23T05:29:43.027Z,-7.80
2019-01-23T05:34:27.802Z,-7.80
2019-01-23T05:39:12.447Z,-7.70
2019-01-23T05:43:57.045Z,-7.60
2019-01-23T05:48:42.033Z,-7.70
2019-01-23T05:53:26.685Z,-7.70
2019-01-23T05:58:12.583Z,-7.70
2019-01-23T06:02:57.207Z,-7.80
2019-01-23T06:07:42.109Z,-7.80
2019-01-23T06:12:27.109Z,-7.80
2019-01-23T06:17:11.924Z,-7.80
2019-01-23T06:21:59.561Z,-7.70
2019-01-23T06:26:44.254Z,-7.80
2019-01-23T06:31:29.101Z,-7.80
2019-01-23T06:36:13.747Z,-7.90
2019-01-23T06:40:58.433Z,-7.80
2019-01-23T06:45:43.389Z,-7.80
2019-01-23T06:50:28.192Z,-7.80
2019-01-23T06:55:12.999Z,-7.90
2019-01-23T06:59:57.833Z,-7.80
2019-01-23T07:04:42.517Z,-7.80
2019-01-23T07:09:27.299Z,-7.80
2019-01-23T07:14:12.179Z,-7.80
2019-01-23T07:18:56.917Z,-7.70
2019-01-23T07:23:41.356Z,-7.70
2019-01-23T07:28:28.672Z,-7.80
2019-01-23T07:33:13.316Z,-7.60
2019-01-23T07:37:58.035Z,-7.50
2019-01-23T07:42:42.755Z,-7.60
2019-01-23T07:47:27.471Z,-7.50
2019-01-23T07:52:12.025Z,-7.50
2019-01-23T07:56:59.555Z,-7.40
2019-01-23T08:01:44.254Z,-7.30
2019-01-23T08:06:29.010Z,-7.10
2019-01-23T08:11:13.777Z,-7.20
2019-01-23T08:16:00.937Z,-7.00
2019-01-23T08:20:45.658Z,-6.90
2019-01-23T08:25:30.359Z,-6.90
2019-01-23T08:30:16.192Z,-6.70
2019-01-23T08:35:03.281Z,-6.50
2019-01-23T08:39:47.847Z,-6.40
2019-01-23T08:44:32.468Z,-6.20
2019-01-23T08:49:17.172Z,-5.90
2019-01-23T08:54:01.711Z,-5.80
2019-01-23T08:58:46.513Z,-5.60
2019-01-23T09:03:31.241Z,-5.50
2019-01-23T09:08:15.963Z,-5.30
2019-01-23T09:13:00.771Z,-5.20
2019-01-23T09:17:45.410Z,-5.00
2019-01-23T09:22:30.067Z,-4.90
2019-01-23T09:27:14.639Z,-4.70
2019-01-23T09:32:30.856Z,-4.60
2019-01-23T09:37:31.767Z,-4.30
2019-01-23T09:42:57.317Z,-4.20
2019-01-23T09:47:56.419Z,-3.90
2019-01-23T09:53:32.445Z,-3.70
2019-01-23T09:58:17.001Z,-3.50
2019-01-23T10:03:01.834Z,-3.30
2019-01-23T10:07:46.585Z,-3.20
2019-01-23T10:12:31.277Z,-3.20
2019-01-23T10:17:16.117Z,-3.00
2019-01-23T10:22:00.806Z,-2.90
2019-01-23T10:26:45.367Z,-2.90
2019-01-23T10:31:30.011Z,-2.80
2019-01-23T10:36:14.625Z,-2.80
2019-01-23T10:40:59.165Z,-2.80
2019-01-23T10:45:43.681Z,-2.60
2019-01-23T10:50:28.245Z,-2.60
2019-01-23T10:55:13.185Z,-2.50
2019-01-23T10:59:57.748Z,-2.40
2019-01-23T11:04:42.587Z,-2.40
2019-01-23T11:09:27.503Z,-2.40
2019-01-23T11:14:12.077Z,-2.40
2019-01-23T11:18:56.947Z,-2.30
2019-01-23T11:23:41.673Z,-2.30
2019-01-23T11:28:26.357Z,-2.30
2019-01-23T11:33:11.078Z,-2.20
2019-01-23T11:37:55.581Z,-2.20
2019-01-23T11:42:40.265Z,-2.20
2019-01-23T11:47:24.798Z,-2.10
2019-01-23T11:52:09.669Z,-2.20
2019-01-23T11:56:54.470Z,-2.10
2019-01-23T12:01:39.208Z,-2.10
2019-01-23T12:06:23.851Z,-2.10
2019-01-23T12:11:09.783Z,-2.00
2019-01-23T12:15:54.431Z,-2.00
2019-01-23T12:20:38.984Z,-2.00
2019-01-23T12:25:23.501Z,-2.00
2019-01-23T12:30:12.161Z,-1.90
2019-01-23T12:34:56.761Z,-1.90
2019-01-23T12:39:45.898Z,-1.90
2019-01-23T12:44:30.416Z,-1.70
2019-01-23T12:49:15.184Z,-1.70
2019-01-23T12:53:59.967Z,-1.60
2019-01-23T12:58:44.711Z,-1.50
2019-01-23T13:03:29.403Z,-1.50
2019-01-23T13:08:14.176Z,-1.60
2019-01-23T13:12:59.164Z,-1.50
2019-01-23T13:17:43.867Z,-1.50
2019-01-23T13:22:28.455Z,-1.50
2019-01-23T13:27:13.243Z,-1.70
2019-01-23T13:31:57.848Z,-1.70
2019-01-23T13:36:42.522Z,-1.80
2019-01-23T13:41:27.108Z,-1.80
2019-01-23T13:46:11.788Z,-1.90
2019-01-23T13:50:56.448Z,-2.20
2019-01-23T13:55:41.125Z,-2.40
2019-01-23T14:00:28.971Z,-2.50
2019-01-23T14:05:14.505Z,-2.50
2019-01-23T14:09:59.211Z,-2.60
2019-01-23T14:14:43.804Z,-2.70
2019-01-23T14:19:28.461Z,-2.70
2019-01-23T14:24:13.097Z,-2.80
2019-01-23T14:28:57.850Z,-3.00
2019-01-23T14:33:42.502Z,-3.20
2019-01-23T14:38:27.235Z,-3.50
2019-01-23T14:43:11.928Z,-3.80
2019-01-23T14:47:56.799Z,-4.00
2019-01-23T14:52:41.607Z,-4.20
2019-01-23T14:57:26.278Z,-4.30
2019-01-23T15:02:11.305Z,-4.50
2019-01-23T15:06:55.875Z,-4.70
2019-01-23T15:11:40.595Z,-4.80
2019-01-23T15:16:25.328Z,-5.00
2019-01-23T15:21:09.931Z,-5.20
2019-01-23T15:25:54.700Z,-5.40
2019-01-23T15:30:40.689Z,-5.60
2019-01-23T15:35:25.495Z,-5.70
2019-01-23T15:40:13.048Z,-5.90
2019-01-23T15:44:57.834Z,-6.20
2019-01-23T15:49:42.935Z,-6.40
2019-01-23T15:54:27.649Z,-6.60
2019-01-23T15:59:12.570Z,-6.70
2019-01-23T16:03:58.534Z,-6.90
2019-01-23T16:08:43.123Z,-7.00
2019-01-23T16:13:27.751Z,-7.00
2019-01-23T16:18:12.672Z,-7.00
2019-01-23T16:22:58.059Z,-7.00
2019-01-23T16:27:42.667Z,-7.00
2019-01-23T16:32:31.492Z,-7.10
2019-01-23T16:37:13.859Z,-7.20
2019-01-23T16:41:58.531Z,-7.20
2019-01-23T16:46:43.160Z,-7.10
2019-01-23T16:51:27.766Z,-7.00
2019-01-23T16:56:13.198Z,-6.90
2019-01-23T17:00:57.791Z,-7.00
2019-01-23T17:05:42.503Z,-6.90
2019-01-23T17:10:27.505Z,-6.80
2019-01-23T17:15:13.543Z,-6.80
2019-01-23T17:19:59.216Z,-6.70
2019-01-23T17:24:43.911Z,-6.70
2019-01-23T17:29:30.719Z,-6.50
2019-01-23T17:34:14.944Z,-6.50
2019-01-23T17:38:59.793Z,-6.40
2019-01-23T17:43:47.775Z,-6.30
2019-01-23T17:48:32.669Z,-6.40
2019-01-23T17:53:17.492Z,-6.30
2019-01-23T17:58:02.479Z,-6.20
2019-01-23T18:02:52.675Z,-6.20
2019-01-23T18:07:33.650Z,-6.10
2019-01-23T18:12:18.377Z,-6.10
2019-01-23T18:17:03.146Z,-6.00
2019-01-23T18:21:47.944Z,-5.90
2019-01-23T18:26:37.556Z,-5.80
2019-01-23T18:31:58.897Z,-5.80
2019-01-23T18:37:21.187Z,-5.80
2019-01-23T18:42:34.631Z,-5.70
2019-01-23T18:48:13.694Z,-5.70
2019-01-23T18:52:58.553Z,-5.60
2019-01-23T18:57:43.291Z,-5.60
2019-01-23T19:02:28.037Z,-5.50
2019-01-23T19:07:12.983Z,-5.50
2019-01-23T19:11:57.799Z,-5.50
2019-01-23T19:16:42.528Z,-5.60
2019-01-23T19:21:27.199Z,-5.50
2019-01-23T19:26:11.874Z,-5.40
2019-01-23T19:30:56.389Z,-5.40
2019-01-23T19:35:41.084Z,-5.40
2019-01-23T19:40:25.735Z,-5.40
2019-01-23T19:45:14.679Z,-5.50
2019-01-23T19:49:59.330Z,-5.60
2019-01-23T19:54:43.919Z,-5.70
2019-01-23T19:59:28.405Z,-5.90
2019-01-23T20:04:12.979Z,-6.10
2019-01-23T20:08:57.459Z,-6.40
2019-01-23T20:13:42.362Z,-6.60
2019-01-23T20:18:27.617Z,-6.80
2019-01-23T20:23:12.274Z,-7.20
2019-01-23T20:28:23.645Z,-7.30
2019-01-23T20:39:10.661Z,-8.00
2019-01-23T20:44:18.545Z,-8.40
2019-01-23T20:50:01.718Z,-8.60
2019-01-23T20:54:46.427Z,-8.90
2019-01-23T20:59:45.364Z,-9.00
2019-01-23T21:04:40.906Z,-9.00
2019-01-23T21:09:25.443Z,-9.10
2019-01-23T21:14:45.617Z,-9.40
2019-01-23T21:19:46.561Z,-9.50
2019-01-23T21:24:31.244Z,-9.60
2019-01-23T21:29:20.364Z,-9.60
2019-01-23T21:34:05.293Z,-9.60
2019-01-23T21:38:49.912Z,-9.60
2019-01-23T21:43:34.449Z,-9.60
2019-01-23T21:48:19.539Z,-9.60
2019-01-23T21:53:04.136Z,-9.60
2019-01-23T21:57:48.879Z,-9.60
2019-01-23T22:02:33.663Z,-9.70
2019-01-23T22:07:18.247Z,-9.80
2019-01-23T22:12:02.951Z,-10.00
2019-01-23T22:16:47.588Z,-10.10
2019-01-23T22:21:32.289Z,-10.10
2019-01-23T22:26:17.147Z,-10.20
2019-01-23T22:31:01.771Z,-10.20
2019-01-23T22:35:46.551Z,-10.20
2019-01-23T22:40:31.370Z,-10.20
2019-01-23T22:45:17.681Z,-10.10
2019-01-23T22:50:02.683Z,-9.90
2019-01-23T22:54:47.354Z,-9.50
2019-01-23T22:59:32.047Z,-9.20
2019-01-23T23:04:16.855Z,-8.80
2019-01-23T23:09:01.485Z,-8.50
2019-01-23T23:13:46.387Z,-8.20
2019-01-23T23:18:31.279Z,-8.00
2019-01-23T23:23:15.869Z,-7.90
2019-01-23T23:28:00.604Z,-7.80
2019-01-23T23:32:45.281Z,-7.70
2019-01-23T23:37:29.969Z,-7.60
2019-01-23T23:42:14.831Z,-7.40
2019-01-23T23:46:59.471Z,-7.40
2019-01-23T23:51:44.132Z,-7.30
2019-01-23T23:56:29.044Z,-7.10
